createdAt,value
2017-05-20T00:00:02.777Z,16.97
2017-05-20T00:00:15.747Z,16.88
2017-05-20T00:00:28.589Z,16.9
2017-05-20T00:00:42.109Z,16.88
2017-05-20T00:00:54.998Z,16.95
2017-05-20T00:01:08.029Z,16.9
2017-05-20T00:01:21.448Z,16.9
2017-05-20T00:01:34.339Z,16.91
2017-05-20T00:01:48.979Z,16.99
2017-05-20T00:02:01.873Z,16.87
2017-05-20T00:02:14.476Z,16.9
2017-05-20T00:02:27.608Z,16.94
2017-05-20T00:02:40.681Z,16.91
2017-05-20T00:02:53.851Z,16.84
2017-05-20T00:03:06.323Z,16.9
2017-05-20T00:03:19.434Z,16.84
2017-05-20T00:03:33.087Z,16.82
2017-05-20T00:03:46.060Z,16.84
2017-05-20T00:03:58.039Z,16.92
2017-05-20T00:04:11.251Z,16.88
2017-05-20T00:04:24.283Z,16.81
2017-05-20T00:04:38.017Z,16.9
2017-05-20T00:04:51.626Z,16.77
2017-05-20T00:05:04.148Z,16.87
2017-05-20T00:05:16.294Z,16.9
2017-05-20T00:05:29.776Z,16.84
2017-05-20T00:05:43.150Z,16.81
2017-05-20T00:05:55.484Z,16.81
2017-05-20T00:06:08.407Z,16.85
2017-05-20T00:06:20.847Z,16.8
2017-05-20T00:06:33.206Z,16.9
2017-05-20T00:06:46.819Z,16.85
2017-05-20T00:06:59.917Z,16.85
2017-05-20T00:07:13.189Z,16.84
2017-05-20T00:07:26.778Z,16.77
2017-05-20T00:07:40.314Z,16.84
2017-05-20T00:07:53.481Z,16.85
2017-05-20T00:08:06.414Z,16.84
2017-05-20T00:08:19.461Z,16.88
2017-05-20T00:08:33.243Z,16.9
2017-05-20T00:08:46.518Z,16.85
2017-05-20T00:08:59.685Z,16.9
2017-05-20T00:09:12.617Z,16.91
2017-05-20T00:09:24.472Z,16.84
2017-05-20T00:09:37.966Z,16.9
2017-05-20T00:09:51.396Z,16.99
2017-05-20T00:10:04.807Z,16.81
2017-05-20T00:10:17.200Z,16.88
2017-05-20T00:10:30.617Z,16.91
2017-05-20T00:10:44.106Z,16.82
2017-05-20T00:10:57.556Z,16.84
2017-05-20T00:11:10.456Z,16.85
2017-05-20T00:11:23.910Z,16.87
2017-05-20T00:11:41.835Z,16.82
2017-05-20T00:11:55.337Z,16.88
2017-05-20T00:12:08.330Z,16.84
2017-05-20T00:12:21.745Z,16.94
2017-05-20T00:12:35.161Z,16.85
2017-05-20T00:12:48.497Z,16.85
2017-05-20T00:13:01.666Z,16.97
2017-05-20T00:13:14.016Z,16.87
2017-05-20T00:13:27.474Z,16.84
2017-05-20T00:13:40.838Z,16.85
2017-05-20T00:13:53.765Z,16.81
2017-05-20T00:14:07.359Z,16.9
2017-05-20T00:14:20.226Z,16.87
2017-05-20T00:14:33.611Z,16.85
2017-05-20T00:14:47.072Z,16.82
2017-05-20T00:14:59.987Z,16.88
2017-05-20T00:15:11.795Z,16.81
2017-05-20T00:15:25.242Z,16.84
2017-05-20T00:15:37.617Z,16.88
2017-05-20T00:15:51.056Z,16.82
2017-05-20T00:16:03.179Z,16.9
2017-05-20T00:16:16.071Z,16.73
2017-05-20T00:16:30.326Z,16.81
2017-05-20T00:16:45.439Z,16.84
2017-05-20T00:16:59.236Z,16.85
2017-05-20T00:17:12.275Z,16.82
2017-05-20T00:17:25.481Z,16.88
2017-05-20T00:17:37.851Z,16.82
2017-05-20T00:17:51.321Z,16.87
2017-05-20T00:18:04.741Z,16.87
2017-05-20T00:18:17.160Z,16.76
2017-05-20T00:18:30.053Z,16.73
2017-05-20T00:18:43.033Z,16.82
2017-05-20T00:18:55.907Z,16.73
2017-05-20T00:19:09.371Z,16.72
2017-05-20T00:19:22.275Z,16.84
2017-05-20T00:19:35.752Z,16.87
2017-05-20T00:19:48.713Z,16.77
2017-05-20T00:20:02.274Z,16.7
2017-05-20T00:20:26.359Z,16.82
2017-05-20T00:20:39.866Z,16.76
2017-05-20T00:20:52.745Z,16.73
2017-05-20T00:21:05.161Z,16.72
2017-05-20T00:21:18.591Z,16.74
2017-05-20T00:21:31.998Z,16.81
2017-05-20T00:21:44.379Z,16.81
2017-05-20T00:21:57.849Z,16.72
2017-05-20T00:22:10.244Z,16.72
2017-05-20T00:22:22.628Z,16.67
2017-05-20T00:22:36.054Z,16.76
2017-05-20T00:22:48.459Z,16.73
2017-05-20T00:23:02.182Z,16.72
2017-05-20T00:23:15.639Z,16.67
2017-05-20T00:23:29.108Z,16.73
2017-05-20T00:23:42.302Z,16.7
2017-05-20T00:23:55.978Z,16.66
2017-05-20T00:24:09.439Z,16.65
2017-05-20T00:24:22.331Z,16.8
2017-05-20T00:24:36.116Z,16.72
2017-05-20T00:24:49.624Z,16.63
2017-05-20T00:25:03.092Z,16.76
2017-05-20T00:25:16.027Z,16.69
2017-05-20T00:25:34.593Z,16.7
2017-05-20T00:25:47.565Z,16.67
2017-05-20T00:26:01.030Z,16.81
2017-05-20T00:26:13.945Z,16.73
2017-05-20T00:26:27.373Z,16.7
2017-05-20T00:26:39.761Z,16.65
2017-05-20T00:26:52.674Z,16.66
2017-05-20T00:27:06.277Z,16.7
2017-05-20T00:27:19.462Z,16.7
2017-05-20T00:27:32.864Z,16.73
2017-05-20T00:28:08.687Z,16.73
2017-05-20T00:28:21.314Z,16.67
2017-05-20T00:28:33.697Z,16.69
2017-05-20T00:28:47.123Z,16.7
2017-05-20T00:28:59.571Z,16.67
2017-05-20T00:29:11.984Z,16.67
2017-05-20T00:29:25.392Z,16.76
2017-05-20T00:29:38.899Z,16.7
2017-05-20T00:29:50.740Z,16.7
2017-05-20T00:30:04.181Z,16.77
2017-05-20T00:30:17.672Z,16.69
2017-05-20T00:30:31.164Z,16.72
2017-05-20T00:30:44.101Z,16.7
2017-05-20T00:30:56.959Z,16.63
2017-05-20T00:31:09.852Z,16.69
2017-05-20T00:31:22.735Z,16.67
2017-05-20T00:31:35.646Z,16.7
2017-05-20T00:31:49.094Z,16.63
2017-05-20T00:32:02.471Z,16.69
2017-05-20T00:32:14.308Z,16.63
2017-05-20T00:32:27.188Z,16.62
2017-05-20T00:32:40.135Z,16.65
2017-05-20T00:32:53.637Z,16.69
2017-05-20T00:33:06.520Z,16.69
2017-05-20T00:33:19.470Z,16.69
2017-05-20T00:33:32.386Z,16.67
2017-05-20T00:33:46.038Z,16.69
2017-05-20T00:33:58.971Z,16.63
2017-05-20T00:34:11.553Z,16.67
2017-05-20T00:34:25.138Z,16.72
2017-05-20T00:34:39.796Z,16.62
2017-05-20T00:34:53.806Z,16.73
2017-05-20T00:35:06.216Z,16.69
2017-05-20T00:35:18.037Z,16.73
2017-05-20T00:35:30.936Z,16.65
2017-05-20T00:35:43.410Z,16.74
2017-05-20T00:35:56.320Z,16.66
2017-05-20T00:36:08.219Z,16.69
2017-05-20T00:36:21.608Z,16.77
2017-05-20T00:36:34.482Z,16.72
2017-05-20T00:36:47.341Z,16.72
2017-05-20T00:37:00.150Z,16.7
2017-05-20T00:37:13.032Z,16.62
2017-05-20T00:37:25.427Z,16.66
2017-05-20T00:37:38.931Z,16.69
2017-05-20T00:37:51.259Z,16.69
2017-05-20T00:38:04.448Z,16.69
2017-05-20T00:38:17.440Z,16.59
2017-05-20T00:38:30.879Z,16.66
2017-05-20T00:38:44.467Z,16.63
2017-05-20T00:38:58.073Z,16.62
2017-05-20T00:39:10.097Z,16.7
2017-05-20T00:39:22.819Z,16.59
2017-05-20T00:39:35.813Z,16.67
2017-05-20T00:39:48.328Z,16.69
2017-05-20T00:40:01.349Z,16.66
2017-05-20T00:40:13.825Z,16.67
2017-05-20T00:40:27.352Z,16.69
2017-05-20T00:40:40.294Z,16.67
2017-05-20T00:40:53.741Z,16.7
2017-05-20T00:41:06.652Z,16.67
2017-05-20T00:41:18.993Z,16.67
2017-05-20T00:41:32.463Z,16.7
2017-05-20T00:41:45.916Z,16.69
2017-05-20T00:41:58.925Z,16.69
2017-05-20T00:42:12.574Z,16.62
2017-05-20T00:42:25.482Z,16.58
2017-05-20T00:42:40.047Z,16.52
2017-05-20T00:42:53.516Z,16.63
2017-05-20T00:43:05.902Z,16.57
2017-05-20T00:43:19.376Z,16.62
2017-05-20T00:43:33.621Z,16.54
2017-05-20T00:44:18.382Z,16.63
2017-05-20T00:44:31.407Z,16.57
2017-05-20T00:45:03.467Z,16.62
2017-05-20T00:45:15.348Z,16.62
2017-05-20T00:45:28.206Z,16.57
2017-05-20T00:45:41.623Z,16.65
2017-05-20T00:45:56.501Z,16.67
2017-05-20T00:46:09.941Z,16.54
2017-05-20T00:46:23.349Z,16.55
2017-05-20T00:46:36.290Z,16.59
2017-05-20T00:46:49.718Z,16.63
2017-05-20T00:47:02.645Z,16.55
2017-05-20T00:47:16.837Z,16.57
2017-05-20T00:47:29.766Z,16.55
2017-05-20T00:47:43.306Z,16.52
2017-05-20T00:47:56.806Z,16.58
2017-05-20T00:48:09.184Z,16.54
2017-05-20T00:48:22.145Z,16.62
2017-05-20T00:48:35.568Z,16.62
2017-05-20T00:48:49.036Z,16.55
2017-05-20T00:49:01.976Z,16.57
2017-05-20T00:49:15.417Z,16.62
2017-05-20T00:49:29.979Z,16.57
2017-05-20T00:49:42.957Z,16.55
2017-05-20T00:49:55.872Z,16.58
2017-05-20T00:50:08.261Z,16.52
2017-05-20T00:50:20.702Z,16.58
2017-05-20T00:50:34.067Z,16.49
2017-05-20T00:50:47.164Z,16.54
2017-05-20T00:51:00.158Z,16.55
2017-05-20T00:51:13.668Z,16.58
2017-05-20T00:51:27.148Z,16.58
2017-05-20T00:51:39.492Z,16.55
2017-05-20T00:51:52.921Z,16.54
2017-05-20T00:52:05.278Z,16.52
2017-05-20T00:52:18.870Z,16.51
2017-05-20T00:52:31.899Z,16.58
2017-05-20T00:52:45.475Z,16.48
2017-05-20T00:52:57.817Z,16.52
2017-05-20T00:53:11.517Z,16.58
2017-05-20T00:53:24.418Z,16.58
2017-05-20T00:53:37.341Z,16.57
2017-05-20T00:53:50.220Z,16.44
2017-05-20T00:54:02.635Z,16.47
2017-05-20T00:54:14.978Z,16.44
2017-05-20T00:54:28.657Z,16.39
2017-05-20T00:54:41.546Z,16.51
2017-05-20T00:54:54.975Z,16.44
2017-05-20T00:55:08.360Z,16.4
2017-05-20T00:55:20.783Z,16.42
2017-05-20T00:55:33.708Z,16.54
2017-05-20T00:55:47.135Z,16.44
2017-05-20T00:56:00.108Z,16.47
2017-05-20T00:56:12.979Z,16.49
2017-05-20T00:56:26.082Z,16.48
2017-05-20T00:56:39.544Z,16.52
2017-05-20T00:56:53.803Z,16.48
2017-05-20T00:57:06.772Z,16.45
2017-05-20T00:57:20.053Z,16.44
2017-05-20T00:57:34.029Z,16.52
2017-05-20T00:57:47.253Z,16.45
2017-05-20T00:57:59.612Z,16.51
2017-05-20T00:58:11.494Z,16.48
2017-05-20T00:58:23.889Z,16.37
2017-05-20T00:58:36.786Z,16.45
2017-05-20T00:58:50.213Z,16.54
2017-05-20T00:59:03.120Z,16.45
2017-05-20T00:59:15.444Z,16.57
2017-05-20T00:59:28.342Z,16.57
2017-05-20T00:59:41.760Z,16.52
2017-05-20T00:59:54.640Z,16.54
2017-05-20T01:00:08.043Z,16.49
2017-05-20T01:00:20.414Z,16.54
2017-05-20T01:00:32.811Z,16.51
2017-05-20T01:00:45.137Z,16.52
2017-05-20T01:00:58.102Z,16.55
2017-05-20T01:01:11.512Z,16.59
2017-05-20T01:01:24.342Z,16.57
2017-05-20T01:01:37.204Z,16.44
2017-05-20T01:01:50.733Z,16.51
2017-05-20T01:02:04.212Z,16.58
2017-05-20T01:02:17.304Z,16.54
2017-05-20T01:02:30.737Z,16.4
2017-05-20T01:02:42.679Z,16.59
2017-05-20T01:02:56.112Z,16.52
2017-05-20T01:03:09.525Z,16.42
2017-05-20T01:03:22.446Z,16.47
2017-05-20T01:03:35.874Z,16.49
2017-05-20T01:03:49.268Z,16.4
2017-05-20T01:04:02.134Z,16.62
2017-05-20T01:04:15.560Z,16.4
2017-05-20T01:04:28.449Z,16.57
2017-05-20T01:04:40.838Z,16.54
2017-05-20T01:04:53.132Z,16.62
2017-05-20T01:05:06.013Z,16.55
2017-05-20T01:05:18.883Z,16.59
2017-05-20T01:05:32.339Z,16.54
2017-05-20T01:05:45.744Z,16.62
2017-05-20T01:05:59.159Z,16.65
2017-05-20T01:06:12.081Z,16.63
2017-05-20T01:06:23.961Z,16.57
2017-05-20T01:06:37.381Z,16.66
2017-05-20T01:06:50.246Z,16.62
2017-05-20T01:07:02.614Z,16.65
2017-05-20T01:07:15.515Z,16.69
2017-05-20T01:07:28.421Z,16.55
2017-05-20T01:07:40.859Z,16.62
2017-05-20T01:07:53.814Z,16.55
2017-05-20T01:08:06.767Z,16.65
2017-05-20T01:08:19.674Z,16.55
2017-05-20T01:08:33.041Z,16.59
2017-05-20T01:08:45.974Z,16.58
2017-05-20T01:08:59.461Z,16.58
2017-05-20T01:09:12.852Z,16.59
2017-05-20T01:09:26.087Z,16.55
2017-05-20T01:09:39.707Z,16.54
2017-05-20T01:09:53.226Z,16.51
2017-05-20T01:10:06.869Z,16.54
2017-05-20T01:10:20.372Z,16.57
2017-05-20T01:10:33.768Z,16.51
2017-05-20T01:10:47.438Z,16.45
2017-05-20T01:10:59.828Z,16.57
2017-05-20T01:11:12.208Z,16.47
2017-05-20T01:11:25.137Z,16.47
2017-05-20T01:11:38.743Z,16.48
2017-05-20T01:11:52.194Z,16.47
2017-05-20T01:12:05.099Z,16.48
2017-05-20T01:12:17.446Z,16.48
2017-05-20T01:12:30.315Z,16.48
2017-05-20T01:12:43.684Z,16.47
2017-05-20T01:12:57.389Z,16.42
2017-05-20T01:13:10.226Z,16.44
2017-05-20T01:13:23.211Z,16.44
2017-05-20T01:13:36.619Z,16.44
2017-05-20T01:13:49.545Z,16.44
2017-05-20T01:14:01.907Z,16.42
2017-05-20T01:14:14.799Z,16.47
2017-05-20T01:14:28.310Z,16.42
2017-05-20T01:14:41.181Z,16.52
2017-05-20T01:14:54.088Z,16.51
2017-05-20T01:15:07.060Z,16.49
2017-05-20T01:15:19.611Z,16.49
2017-05-20T01:15:33.163Z,16.49
2017-05-20T01:15:46.635Z,16.44
2017-05-20T01:16:00.018Z,16.44
2017-05-20T01:16:11.917Z,16.4
2017-05-20T01:16:24.798Z,16.42
2017-05-20T01:16:38.242Z,16.42
2017-05-20T01:16:50.102Z,16.47
2017-05-20T01:17:03.532Z,16.45
2017-05-20T01:17:16.984Z,16.42
2017-05-20T01:17:30.412Z,16.39
2017-05-20T01:17:43.387Z,16.39
2017-05-20T01:17:56.288Z,16.49
2017-05-20T01:18:09.730Z,16.44
2017-05-20T01:18:24.040Z,16.37
2017-05-20T01:18:37.005Z,16.49
2017-05-20T01:18:50.534Z,16.37
2017-05-20T01:19:03.997Z,16.42
2017-05-20T01:19:16.848Z,16.37
2017-05-20T01:19:30.265Z,16.4
2017-05-20T01:19:43.668Z,16.4
2017-05-20T01:19:57.067Z,16.39
2017-05-20T01:20:13.069Z,16.37
2017-05-20T01:20:26.246Z,16.44
2017-05-20T01:20:39.166Z,16.42
2017-05-20T01:20:51.556Z,16.39
2017-05-20T01:21:04.572Z,16.3
2017-05-20T01:21:17.472Z,16.32
2017-05-20T01:21:30.301Z,16.32
2017-05-20T01:21:43.254Z,16.36
2017-05-20T01:21:56.155Z,16.37
2017-05-20T01:22:09.070Z,16.4
2017-05-20T01:22:21.958Z,16.4
2017-05-20T01:22:34.863Z,16.33
2017-05-20T01:22:47.304Z,16.33
2017-05-20T01:23:00.799Z,16.34
2017-05-20T01:23:14.390Z,16.36
2017-05-20T01:23:27.813Z,16.33
2017-05-20T01:23:41.319Z,16.4
2017-05-20T01:23:54.241Z,16.34
2017-05-20T01:24:07.120Z,16.44
2017-05-20T01:24:20.621Z,16.39
2017-05-20T01:24:33.837Z,16.36
2017-05-20T01:24:47.459Z,16.37
2017-05-20T01:25:00.648Z,16.44
2017-05-20T01:25:12.977Z,16.42
2017-05-20T01:25:26.468Z,16.42
2017-05-20T01:25:39.425Z,16.42
2017-05-20T01:25:52.324Z,16.47
2017-05-20T01:26:04.233Z,16.45
2017-05-20T01:26:17.738Z,16.44
2017-05-20T01:26:30.746Z,16.45
2017-05-20T01:26:44.260Z,16.47
2017-05-20T01:26:57.109Z,16.44
2017-05-20T01:27:10.005Z,16.45
2017-05-20T01:27:29.531Z,16.42
2017-05-20T01:27:47.199Z,16.48
2017-05-20T01:28:00.024Z,16.52
2017-05-20T01:28:12.467Z,16.39
2017-05-20T01:28:25.449Z,16.44
2017-05-20T01:28:38.828Z,16.48
2017-05-20T01:28:52.291Z,16.44
2017-05-20T01:29:05.108Z,16.49
2017-05-20T01:29:18.540Z,16.45
2017-05-20T01:29:35.017Z,16.49
2017-05-20T01:29:48.420Z,16.45
2017-05-20T01:30:02.027Z,16.49
2017-05-20T01:30:14.504Z,16.49
2017-05-20T01:30:26.341Z,16.51
2017-05-20T01:30:39.449Z,16.49
2017-05-20T01:30:52.924Z,16.47
2017-05-20T01:31:05.878Z,16.42
2017-05-20T01:31:18.949Z,16.42
2017-05-20T01:31:31.905Z,16.48
2017-05-20T01:31:44.961Z,16.48
2017-05-20T01:31:58.489Z,16.47
2017-05-20T01:32:11.425Z,16.45
2017-05-20T01:32:24.878Z,16.45
2017-05-20T01:32:38.312Z,16.44
2017-05-20T01:32:51.289Z,16.49
2017-05-20T01:33:04.755Z,16.47
2017-05-20T01:33:18.160Z,16.44
2017-05-20T01:33:30.763Z,16.47
2017-05-20T01:33:44.165Z,16.44
2017-05-20T01:33:57.143Z,16.42
2017-05-20T01:34:12.087Z,16.45
2017-05-20T01:34:24.091Z,16.44
2017-05-20T01:34:37.554Z,16.51
2017-05-20T01:34:51.027Z,16.48
2017-05-20T01:35:04.442Z,16.52
2017-05-20T01:35:16.805Z,16.42
2017-05-20T01:35:30.184Z,16.49
2017-05-20T01:35:43.105Z,16.47
2017-05-20T01:35:56.065Z,16.4
2017-05-20T01:36:16.353Z,16.44
2017-05-20T01:36:29.239Z,16.48
2017-05-20T01:36:42.681Z,16.45
2017-05-20T01:36:56.101Z,16.39
2017-05-20T01:37:09.075Z,16.51
2017-05-20T01:37:21.452Z,16.49
2017-05-20T01:37:34.895Z,16.45
2017-05-20T01:37:48.792Z,16.44
2017-05-20T01:38:01.785Z,16.48
2017-05-20T01:38:15.226Z,16.47
2017-05-20T01:38:52.008Z,16.39
2017-05-20T01:39:04.887Z,16.4
2017-05-20T01:39:18.844Z,16.47
2017-05-20T01:39:31.285Z,16.42
2017-05-20T01:39:44.384Z,16.44
2017-05-20T01:39:57.807Z,16.49
2017-05-20T01:40:10.794Z,16.42
2017-05-20T01:40:24.248Z,16.45
2017-05-20T01:40:37.763Z,16.47
2017-05-20T01:40:50.220Z,16.49
2017-05-20T01:41:03.190Z,16.4
2017-05-20T01:41:15.699Z,16.44
2017-05-20T01:41:28.781Z,16.45
2017-05-20T01:41:41.760Z,16.42
2017-05-20T01:41:55.241Z,16.37
2017-05-20T01:42:08.342Z,16.42
2017-05-20T01:42:43.311Z,16.32
2017-05-20T01:42:56.249Z,16.42
2017-05-20T01:43:09.078Z,16.39
2017-05-20T01:43:22.649Z,16.34
2017-05-20T01:43:36.052Z,16.32
2017-05-20T01:43:48.895Z,16.34
2017-05-20T01:44:02.320Z,16.34
2017-05-20T01:44:14.135Z,16.37
2017-05-20T01:44:27.577Z,16.34
2017-05-20T01:44:40.417Z,16.32
2017-05-20T01:44:53.818Z,16.36
2017-05-20T01:45:06.779Z,16.29
2017-05-20T01:45:19.714Z,16.32
2017-05-20T01:45:33.124Z,16.29
2017-05-20T01:45:46.073Z,16.32
2017-05-20T01:46:02.019Z,16.26
2017-05-20T01:46:15.413Z,16.29
2017-05-20T01:46:28.281Z,16.36
2017-05-20T01:46:41.128Z,16.36
2017-05-20T01:46:54.014Z,16.36
2017-05-20T01:47:07.156Z,16.36
2017-05-20T01:47:20.130Z,16.39
2017-05-20T01:47:35.251Z,16.37
2017-05-20T01:47:48.726Z,16.32
2017-05-20T01:48:01.641Z,16.32
2017-05-20T01:48:15.137Z,16.36
2017-05-20T01:48:27.644Z,16.29
2017-05-20T01:48:40.834Z,16.36
2017-05-20T01:48:53.255Z,16.32
2017-05-20T01:49:06.703Z,16.39
2017-05-20T01:49:19.058Z,16.34
2017-05-20T01:49:32.273Z,16.44
2017-05-20T01:49:46.612Z,16.37
2017-05-20T01:49:59.496Z,16.4
2017-05-20T01:50:11.449Z,16.32
2017-05-20T01:50:27.460Z,16.48
2017-05-20T01:50:41.706Z,16.42
2017-05-20T01:50:55.721Z,16.42
2017-05-20T01:51:08.613Z,16.42
2017-05-20T01:51:22.014Z,16.4
2017-05-20T01:51:34.957Z,16.4
2017-05-20T01:51:48.373Z,16.36
2017-05-20T01:52:01.772Z,16.39
2017-05-20T01:52:15.224Z,16.48
2017-05-20T01:52:28.734Z,16.42
2017-05-20T01:52:41.600Z,16.47
2017-05-20T01:52:54.998Z,16.44
2017-05-20T01:53:07.941Z,16.48
2017-05-20T01:53:21.554Z,16.48
2017-05-20T01:53:35.028Z,16.42
2017-05-20T01:53:48.430Z,16.44
2017-05-20T01:54:00.809Z,16.45
2017-05-20T01:54:14.084Z,16.4
2017-05-20T01:54:27.559Z,16.52
2017-05-20T01:54:41.053Z,16.44
2017-05-20T01:54:54.212Z,16.48
2017-05-20T01:55:07.636Z,16.49
2017-05-20T01:55:21.171Z,16.45
2017-05-20T01:55:34.045Z,16.37
2017-05-20T01:55:45.398Z,16.45
2017-05-20T01:55:59.542Z,16.47
2017-05-20T01:56:11.926Z,16.47
2017-05-20T01:56:26.522Z,16.47
2017-05-20T01:56:39.975Z,16.47
2017-05-20T01:56:51.897Z,16.58
2017-05-20T01:57:04.754Z,16.45
2017-05-20T01:57:19.041Z,16.54
2017-05-20T01:57:31.915Z,16.45
2017-05-20T01:57:47.397Z,16.54
2017-05-20T01:58:00.819Z,16.54
2017-05-20T01:58:13.962Z,16.45
2017-05-20T01:58:26.220Z,16.52
2017-05-20T01:58:39.171Z,16.47
2017-05-20T01:58:52.577Z,16.52
2017-05-20T01:59:06.013Z,16.42
2017-05-20T01:59:19.418Z,16.44
2017-05-20T01:59:31.772Z,16.54
2017-05-20T01:59:44.729Z,16.47
2017-05-20T01:59:57.107Z,16.57
2017-05-20T02:00:09.922Z,16.45
2017-05-20T02:00:23.344Z,16.45
2017-05-20T02:00:36.773Z,16.58
2017-05-20T02:00:50.135Z,16.55
2017-05-20T02:01:03.585Z,16.63
2017-05-20T02:01:16.472Z,16.54
2017-05-20T02:01:29.318Z,16.42
2017-05-20T02:01:42.251Z,16.58
2017-05-20T02:01:54.650Z,16.47
2017-05-20T02:02:07.543Z,16.44
2017-05-20T02:02:20.431Z,16.51
2017-05-20T02:02:33.801Z,16.52
2017-05-20T02:02:46.115Z,16.58
2017-05-20T02:02:58.984Z,16.4
2017-05-20T02:03:11.401Z,16.58
2017-05-20T02:03:24.280Z,16.57
2017-05-20T02:03:37.143Z,16.44
2017-05-20T02:03:50.036Z,16.47
2017-05-20T02:04:03.548Z,16.47
2017-05-20T02:04:16.913Z,16.44
2017-05-20T02:04:30.274Z,16.44
2017-05-20T02:04:43.747Z,16.42
2017-05-20T02:04:57.177Z,16.49
2017-05-20T02:05:10.044Z,16.48
2017-05-20T02:05:23.389Z,16.44
2017-05-20T02:05:36.817Z,16.49
2017-05-20T02:05:50.294Z,16.48
2017-05-20T02:06:02.707Z,16.42
2017-05-20T02:06:14.019Z,16.51
2017-05-20T02:06:27.763Z,16.48
2017-05-20T02:06:41.217Z,16.44
2017-05-20T02:06:54.078Z,16.39
2017-05-20T02:07:06.459Z,16.42
2017-05-20T02:07:19.330Z,16.47
2017-05-20T02:07:32.766Z,16.45
2017-05-20T02:07:46.194Z,16.47
2017-05-20T02:07:59.634Z,16.47
2017-05-20T02:08:12.541Z,16.4
2017-05-20T02:08:25.421Z,16.48
2017-05-20T02:08:38.409Z,16.47
2017-05-20T02:08:50.801Z,16.42
2017-05-20T02:09:03.723Z,16.4
2017-05-20T02:09:16.615Z,16.45
2017-05-20T02:09:30.038Z,16.42
2017-05-20T02:09:42.919Z,16.42
2017-05-20T02:09:55.954Z,16.44
2017-05-20T02:10:08.903Z,16.39
2017-05-20T02:10:22.273Z,16.47
2017-05-20T02:10:35.714Z,16.45
2017-05-20T02:10:48.077Z,16.47
2017-05-20T02:11:01.527Z,16.48
2017-05-20T02:11:13.954Z,16.44
2017-05-20T02:11:26.187Z,16.47
2017-05-20T02:11:39.085Z,16.48
2017-05-20T02:11:51.414Z,16.47
2017-05-20T02:12:03.816Z,16.44
2017-05-20T02:12:16.933Z,16.4
2017-05-20T02:12:30.421Z,16.51
2017-05-20T02:12:42.805Z,16.45
2017-05-20T02:12:55.094Z,16.49
2017-05-20T02:13:08.006Z,16.59
2017-05-20T02:13:21.441Z,16.58
2017-05-20T02:13:34.863Z,16.59
2017-05-20T02:13:47.255Z,16.58
2017-05-20T02:14:00.208Z,16.55
2017-05-20T02:14:12.612Z,16.52
2017-05-20T02:14:26.291Z,16.51
2017-05-20T02:14:39.014Z,16.62
2017-05-20T02:14:52.027Z,16.55
2017-05-20T02:15:04.975Z,16.63
2017-05-20T02:15:18.404Z,16.59
2017-05-20T02:15:30.799Z,16.52
2017-05-20T02:15:44.388Z,16.55
2017-05-20T02:15:57.239Z,16.7
2017-05-20T02:16:10.121Z,16.69
2017-05-20T02:16:24.789Z,16.67
2017-05-20T02:16:38.422Z,16.67
2017-05-20T02:16:51.341Z,16.69
2017-05-20T02:17:03.714Z,16.69
2017-05-20T02:17:17.234Z,16.69
2017-05-20T02:17:30.781Z,16.73
2017-05-20T02:17:43.785Z,16.59
2017-05-20T02:17:57.227Z,16.63
2017-05-20T02:18:10.136Z,16.66
2017-05-20T02:18:23.832Z,16.67
2017-05-20T02:18:36.712Z,16.69
2017-05-20T02:18:50.165Z,16.69
2017-05-20T02:19:03.060Z,16.69
2017-05-20T02:19:16.528Z,16.66
2017-05-20T02:19:29.953Z,16.62
2017-05-20T02:19:47.031Z,16.66
2017-05-20T02:19:59.950Z,16.62
2017-05-20T02:20:12.286Z,16.62
2017-05-20T02:20:24.150Z,16.58
2017-05-20T02:20:41.386Z,16.62
2017-05-20T02:20:54.400Z,16.57
2017-05-20T02:21:07.855Z,16.59
2017-05-20T02:21:21.375Z,16.59
2017-05-20T02:21:35.551Z,16.58
2017-05-20T02:21:48.717Z,16.57
2017-05-20T02:22:02.241Z,16.58
2017-05-20T02:22:16.879Z,16.55
2017-05-20T02:22:34.842Z,16.55
2017-05-20T02:22:51.340Z,16.58
2017-05-20T02:23:05.333Z,16.59
2017-05-20T02:23:19.254Z,16.47
2017-05-20T02:23:34.633Z,16.57
2017-05-20T02:23:50.327Z,16.58
2017-05-20T02:24:03.372Z,16.44
2017-05-20T02:24:15.669Z,16.57
2017-05-20T02:24:29.051Z,16.57
2017-05-20T02:24:42.089Z,16.54
2017-05-20T02:24:55.036Z,16.54
2017-05-20T02:25:24.942Z,16.57
2017-05-20T02:25:43.518Z,16.44
2017-05-20T02:25:56.566Z,16.49
2017-05-20T02:26:10.376Z,16.57
2017-05-20T02:26:23.796Z,16.45
2017-05-20T02:26:36.817Z,16.48
2017-05-20T02:26:49.660Z,16.47
2017-05-20T02:27:03.316Z,16.57
2017-05-20T02:27:16.167Z,16.44
2017-05-20T02:27:29.671Z,16.47
2017-05-20T02:27:43.456Z,16.42
2017-05-20T02:27:56.949Z,16.4
2017-05-20T02:28:09.849Z,16.4
2017-05-20T02:28:23.321Z,16.47
2017-05-20T02:28:35.691Z,16.47
2017-05-20T02:28:48.640Z,16.48
2017-05-20T02:29:02.022Z,16.45
2017-05-20T02:29:13.928Z,16.47
2017-05-20T02:29:27.360Z,16.51
2017-05-20T02:29:40.233Z,16.49
2017-05-20T02:29:53.170Z,16.45
2017-05-20T02:30:06.726Z,16.44
2017-05-20T02:30:19.634Z,16.57
2017-05-20T02:30:33.129Z,16.44
2017-05-20T02:30:46.571Z,16.48
2017-05-20T02:30:58.912Z,16.44
2017-05-20T02:31:12.013Z,16.49
2017-05-20T02:31:25.428Z,16.47
2017-05-20T02:31:38.312Z,16.44
2017-05-20T02:31:51.475Z,16.44
2017-05-20T02:32:04.963Z,16.47
2017-05-20T02:32:18.436Z,16.47
2017-05-20T02:32:29.746Z,16.47
2017-05-20T02:32:42.097Z,16.45
2017-05-20T02:32:55.117Z,16.4
2017-05-20T02:33:08.594Z,16.58
2017-05-20T02:33:20.980Z,16.55
2017-05-20T02:33:33.967Z,16.47
2017-05-20T02:33:47.470Z,16.54
2017-05-20T02:33:59.866Z,16.54
2017-05-20T02:34:17.402Z,16.57
2017-05-20T02:34:30.291Z,16.59
2017-05-20T02:34:42.615Z,16.55
2017-05-20T02:34:55.426Z,16.63
2017-05-20T02:35:08.624Z,16.65
2017-05-20T02:35:22.110Z,16.63
2017-05-20T02:35:35.010Z,16.55
2017-05-20T02:35:47.439Z,16.65
2017-05-20T02:35:59.934Z,16.66
2017-05-20T02:36:12.247Z,16.73
2017-05-20T02:36:25.116Z,16.63
2017-05-20T02:36:38.510Z,16.65
2017-05-20T02:36:51.335Z,16.74
2017-05-20T02:37:04.784Z,16.72
2017-05-20T02:37:17.667Z,16.8
2017-05-20T02:37:31.116Z,16.82
2017-05-20T02:37:43.492Z,16.74
2017-05-20T02:37:56.427Z,16.74
2017-05-20T02:38:08.258Z,16.8
2017-05-20T02:38:21.237Z,16.72
2017-05-20T02:38:34.195Z,16.72
2017-05-20T02:38:47.737Z,16.77
2017-05-20T02:39:01.281Z,16.74
2017-05-20T02:39:15.719Z,16.76
2017-05-20T02:39:28.114Z,16.84
2017-05-20T02:39:41.022Z,16.82
2017-05-20T02:39:54.477Z,16.81
2017-05-20T02:40:08.171Z,16.82
2017-05-20T02:40:20.623Z,16.88
2017-05-20T02:40:34.104Z,16.87
2017-05-20T02:40:47.479Z,16.84
2017-05-20T02:40:59.918Z,16.87
2017-05-20T02:41:13.440Z,16.85
2017-05-20T02:41:26.274Z,16.85
2017-05-20T02:41:39.662Z,16.87
2017-05-20T02:41:51.434Z,16.9
2017-05-20T02:42:04.858Z,16.87
2017-05-20T02:42:17.368Z,16.81
2017-05-20T02:42:30.830Z,16.87
2017-05-20T02:42:43.780Z,16.84
2017-05-20T02:42:56.741Z,16.85
2017-05-20T02:43:10.167Z,16.88
2017-05-20T02:43:23.572Z,16.84
2017-05-20T02:43:35.506Z,16.88
2017-05-20T02:43:48.932Z,16.82
2017-05-20T02:44:01.913Z,16.82
2017-05-20T02:44:15.403Z,16.88
2017-05-20T02:44:28.837Z,16.84
2017-05-20T02:44:42.411Z,16.85
2017-05-20T02:44:54.769Z,16.87
2017-05-20T02:45:07.715Z,16.87
2017-05-20T02:45:20.608Z,16.82
2017-05-20T02:45:33.001Z,16.84
2017-05-20T02:45:46.515Z,16.88
2017-05-20T02:45:59.427Z,16.81
2017-05-20T02:46:11.547Z,16.9
2017-05-20T02:46:25.012Z,16.84
2017-05-20T02:46:38.452Z,16.91
2017-05-20T02:46:51.333Z,16.84
2017-05-20T02:47:03.686Z,16.9
2017-05-20T02:47:16.287Z,16.88
2017-05-20T02:47:29.094Z,16.92
2017-05-20T02:47:42.034Z,16.87
2017-05-20T02:47:54.438Z,16.81
2017-05-20T02:48:07.911Z,16.82
2017-05-20T02:48:43.001Z,16.8
2017-05-20T02:48:55.908Z,16.92
2017-05-20T02:49:09.337Z,16.92
2017-05-20T02:49:22.800Z,16.82
2017-05-20T02:49:36.320Z,16.95
2017-05-20T02:49:49.274Z,16.81
2017-05-20T02:50:02.178Z,16.91
2017-05-20T02:50:15.546Z,16.81
2017-05-20T02:50:28.657Z,16.82
2017-05-20T02:50:42.155Z,16.9
2017-05-20T02:50:56.442Z,16.88
2017-05-20T02:51:10.041Z,16.82
2017-05-20T02:51:23.667Z,16.82
2017-05-20T02:51:43.174Z,16.8
2017-05-20T02:52:00.578Z,16.8
2017-05-20T02:52:13.038Z,16.82
2017-05-20T02:52:24.966Z,16.82
2017-05-20T02:52:39.053Z,16.84
2017-05-20T02:52:52.498Z,16.77
2017-05-20T02:53:05.995Z,16.87